sensor_id;sensor_type;location;lat;lon;timestamp;temperature;humidity
4249;DHT22;8404;48.752;12.922;2022-10-22T00:01:21;12.30;97.70
4249;DHT22;8404;48.752;12.922;2022-10-22T00:03:50;12.30;97.70
4249;DHT22;8404;48.752;12.922;2022-10-22T00:06:19;12.30;97.70
4249;DHT22;8404;48.752;12.922;2022-10-22T00:08:47;12.30;97.70
4249;DHT22;8404;48.752;12.922;2022-10-22T00:11:18;12.30;97.80
4249;DHT22;8404;48.752;12.922;2022-10-22T00:13:47;12.20;97.80
4249;DHT22;8404;48.752;12.922;2022-10-22T00:16:15;12.20;97.90
4249;DHT22;8404;48.752;12.922;2022-10-22T00:18:43;12.20;97.90
4249;DHT22;8404;48.752;12.922;2022-10-22T00:21:11;12.20;97.90
4249;DHT22;8404;48.752;12.922;2022-10-22T00:23:40;12.20;98.10
4249;DHT22;8404;48.752;12.922;2022-10-22T00:26:09;12.20;97.80
4249;DHT22;8404;48.752;12.922;2022-10-22T00:28:39;12.20;97.80
4249;DHT22;8404;48.752;12.922;2022-10-22T00:31:07;12.20;97.80
4249;DHT22;8404;48.752;12.922;2022-10-22T00:33:35;12.20;97.80
4249;DHT22;8404;48.752;12.922;2022-10-22T00:36:03;12.20;97.80
4249;DHT22;8404;48.752;12.922;2022-10-22T00:38:31;12.30;97.80
4249;DHT22;8404;48.752;12.922;2022-10-22T00:41:00;12.30;97.80
4249;DHT22;8404;48.752;12.922;2022-10-22T00:43:33;12.30;97.80
4249;DHT22;8404;48.752;12.922;2022-10-22T00:46:03;12.30;97.90
4249;DHT22;8404;48.752;12.922;2022-10-22T00:48:31;12.30;97.90
4249;DHT22;8404;48.752;12.922;2022-10-22T00:51:05;12.30;97.90
4249;DHT22;8404;48.752;12.922;2022-10-22T00:53:37;12.30;97.90
4249;DHT22;8404;48.752;12.922;2022-10-22T00:56:07;12.30;97.90
4249;DHT22;8404;48.752;12.922;2022-10-22T00:58:38;12.30;97.80
4249;DHT22;8404;48.752;12.922;2022-10-22T01:01:08;12.30;97.80
4249;DHT22;8404;48.752;12.922;2022-10-22T01:03:39;12.30;97.80
4249;DHT22;8404;48.752;12.922;2022-10-22T01:06:12;12.30;97.80
4249;DHT22;8404;48.752;12.922;2022-10-22T01:08:48;12.30;97.80
4249;DHT22;8404;48.752;12.922;2022-10-22T01:11:25;12.30;97.80
4249;DHT22;8404;48.752;12.922;2022-10-22T01:14:00;12.30;97.90
4249;DHT22;8404;48.752;12.922;2022-10-22T01:16:36;12.30;97.90
4249;DHT22;8404;48.752;12.922;2022-10-22T01:19:20;12.30;97.90
4249;DHT22;8404;48.752;12.922;2022-10-22T01:21:56;12.30;97.90
4249;DHT22;8404;48.752;12.922;2022-10-22T01:24:37;12.30;97.90
4249;DHT22;8404;48.752;12.922;2022-10-22T01:30:05;12.20;97.90
4249;DHT22;8404;48.752;12.922;2022-10-22T01:32:37;12.20;98.00
4249;DHT22;8404;48.752;12.922;2022-10-22T01:35:09;12.20;98.00
4249;DHT22;8404;48.752;12.922;2022-10-22T01:37:41;12.20;98.00
4249;DHT22;8404;48.752;12.922;2022-10-22T01:40:11;12.20;98.00
4249;DHT22;8404;48.752;12.922;2022-10-22T01:42:40;12.30;98.00
4249;DHT22;8404;48.752;12.922;2022-10-22T01:45:13;12.30;98.10
4249;DHT22;8404;48.752;12.922;2022-10-22T01:47:48;12.30;98.10
4249;DHT22;8404;48.752;12.922;2022-10-22T01:50:38;12.30;98.20
4249;DHT22;8404;48.752;12.922;2022-10-22T01:53:20;12.30;98.10
4249;DHT22;8404;48.752;12.922;2022-10-22T01:56:03;12.30;98.10
4249;DHT22;8404;48.752;12.922;2022-10-22T01:58:40;12.30;98.00
4249;DHT22;8404;48.752;12.922;2022-10-22T02:01:17;12.30;98.00
4249;DHT22;8404;48.752;12.922;2022-10-22T02:03:54;12.30;98.10
4249;DHT22;8404;48.752;12.922;2022-10-22T02:06:24;12.40;98.10
4249;DHT22;8404;48.752;12.922;2022-10-22T02:09:19;12.40;98.10
4249;DHT22;8404;48.752;12.922;2022-10-22T02:11:49;12.40;98.10
4249;DHT22;8404;48.752;12.922;2022-10-22T02:14:18;12.40;98.10
4249;DHT22;8404;48.752;12.922;2022-10-22T02:16:49;12.40;97.70
4249;DHT22;8404;48.752;12.922;2022-10-22T02:19:23;12.40;97.60
4249;DHT22;8404;48.752;12.922;2022-10-22T02:21:52;12.40;97.30
4249;DHT22;8404;48.752;12.922;2022-10-22T02:24:21;12.30;97.60
4249;DHT22;8404;48.752;12.922;2022-10-22T02:26:54;12.30;97.60
4249;DHT22;8404;48.752;12.922;2022-10-22T02:29:29;12.30;97.80
4249;DHT22;8404;48.752;12.922;2022-10-22T02:32:03;12.30;97.70
4249;DHT22;8404;48.752;12.922;2022-10-22T02:34:32;12.30;97.90
4249;DHT22;8404;48.752;12.922;2022-10-22T02:37:02;12.30;98.00
4249;DHT22;8404;48.752;12.922;2022-10-22T02:39:32;12.20;98.00
4249;DHT22;8404;48.752;12.922;2022-10-22T02:42:02;12.30;98.10
4249;DHT22;8404;48.752;12.922;2022-10-22T02:44:30;12.30;98.30
4249;DHT22;8404;48.752;12.922;2022-10-22T02:46:59;12.30;98.30
4249;DHT22;8404;48.752;12.922;2022-10-22T02:49:28;12.30;98.30
4249;DHT22;8404;48.752;12.922;2022-10-22T02:51:56;12.40;98.30
4249;DHT22;8404;48.752;12.922;2022-10-22T02:54:25;12.40;98.20
4249;DHT22;8404;48.752;12.922;2022-10-22T02:56:53;12.40;98.30
4249;DHT22;8404;48.752;12.922;2022-10-22T02:59:22;12.40;98.40
4249;DHT22;8404;48.752;12.922;2022-10-22T03:01:50;12.50;98.40
4249;DHT22;8404;48.752;12.922;2022-10-22T03:04:18;12.40;98.40
4249;DHT22;8404;48.752;12.922;2022-10-22T03:06:47;12.50;98.40
4249;DHT22;8404;48.752;12.922;2022-10-22T03:09:16;12.50;98.30
4249;DHT22;8404;48.752;12.922;2022-10-22T03:11:49;12.50;98.30
4249;DHT22;8404;48.752;12.922;2022-10-22T03:14:18;12.50;98.30
4249;DHT22;8404;48.752;12.922;2022-10-22T03:16:48;12.40;98.40
4249;DHT22;8404;48.752;12.922;2022-10-22T03:19:16;12.40;98.60
4249;DHT22;8404;48.752;12.922;2022-10-22T03:21:49;12.40;98.80
4249;DHT22;8404;48.752;12.922;2022-10-22T03:24:19;12.30;98.90
4249;DHT22;8404;48.752;12.922;2022-10-22T03:26:49;12.40;99.00
4249;DHT22;8404;48.752;12.922;2022-10-22T03:29:20;12.30;99.20
4249;DHT22;8404;48.752;12.922;2022-10-22T03:31:48;12.30;99.40
4249;DHT22;8404;48.752;12.922;2022-10-22T03:34:16;12.30;99.30
4249;DHT22;8404;48.752;12.922;2022-10-22T03:36:45;12.40;99.30
4249;DHT22;8404;48.752;12.922;2022-10-22T03:39:16;12.40;99.60
4249;DHT22;8404;48.752;12.922;2022-10-22T03:41:45;12.50;99.30
4249;DHT22;8404;48.752;12.922;2022-10-22T03:44:14;12.50;99.20
4249;DHT22;8404;48.752;12.922;2022-10-22T03:46:43;12.50;99.20
4249;DHT22;8404;48.752;12.922;2022-10-22T03:49:11;12.50;99.20
4249;DHT22;8404;48.752;12.922;2022-10-22T03:51:39;12.50;99.20
4249;DHT22;8404;48.752;12.922;2022-10-22T03:54:08;12.60;99.20
4249;DHT22;8404;48.752;12.922;2022-10-22T03:56:37;12.50;99.20
4249;DHT22;8404;48.752;12.922;2022-10-22T03:59:05;12.60;99.20
4249;DHT22;8404;48.752;12.922;2022-10-22T04:01:33;12.60;99.20
4249;DHT22;8404;48.752;12.922;2022-10-22T04:04:01;12.60;99.20
4249;DHT22;8404;48.752;12.922;2022-10-22T04:06:30;12.60;99.20
4249;DHT22;8404;48.752;12.922;2022-10-22T04:08:58;12.60;99.20
4249;DHT22;8404;48.752;12.922;2022-10-22T04:11:27;12.60;99.50
4249;DHT22;8404;48.752;12.922;2022-10-22T04:13:56;12.60;99.40
4249;DHT22;8404;48.752;12.922;2022-10-22T04:16:24;12.60;99.20
4249;DHT22;8404;48.752;12.922;2022-10-22T04:18:56;12.60;99.30
4249;DHT22;8404;48.752;12.922;2022-10-22T04:21:25;12.50;99.30
4249;DHT22;8404;48.752;12.922;2022-10-22T04:23:53;12.50;99.30
4249;DHT22;8404;48.752;12.922;2022-10-22T04:26:21;12.50;99.40
4249;DHT22;8404;48.752;12.922;2022-10-22T04:28:50;12.50;99.60
4249;DHT22;8404;48.752;12.922;2022-10-22T04:31:21;12.50;99.40
4249;DHT22;8404;48.752;12.922;2022-10-22T04:33:51;12.50;99.50
4249;DHT22;8404;48.752;12.922;2022-10-22T04:36:20;12.50;99.50
4249;DHT22;8404;48.752;12.922;2022-10-22T04:38:52;12.50;99.50
4249;DHT22;8404;48.752;12.922;2022-10-22T04:41:24;12.50;99.40
4249;DHT22;8404;48.752;12.922;2022-10-22T04:43:53;12.50;99.40
4249;DHT22;8404;48.752;12.922;2022-10-22T04:46:23;12.50;99.40
4249;DHT22;8404;48.752;12.922;2022-10-22T04:48:52;12.50;99.40
4249;DHT22;8404;48.752;12.922;2022-10-22T04:51:23;12.50;99.40
4249;DHT22;8404;48.752;12.922;2022-10-22T04:53:52;12.50;99.40
4249;DHT22;8404;48.752;12.922;2022-10-22T04:56:22;12.50;99.50
4249;DHT22;8404;48.752;12.922;2022-10-22T04:58:52;12.50;99.40
4249;DHT22;8404;48.752;12.922;2022-10-22T05:01:23;12.50;99.40
4249;DHT22;8404;48.752;12.922;2022-10-22T05:03:53;12.50;99.40
4249;DHT22;8404;48.752;12.922;2022-10-22T05:06:23;12.60;99.50
4249;DHT22;8404;48.752;12.922;2022-10-22T05:08:52;12.50;99.50
4249;DHT22;8404;48.752;12.922;2022-10-22T05:11:23;12.50;99.50
4249;DHT22;8404;48.752;12.922;2022-10-22T05:13:55;12.50;99.60
4249;DHT22;8404;48.752;12.922;2022-10-22T05:16:25;12.50;99.50
4249;DHT22;8404;48.752;12.922;2022-10-22T05:18:55;12.50;99.50
4249;DHT22;8404;48.752;12.922;2022-10-22T05:21:23;12.60;99.60
4249;DHT22;8404;48.752;12.922;2022-10-22T05:23:51;12.60;99.60
4249;DHT22;8404;48.752;12.922;2022-10-22T05:26:21;12.60;99.80
4249;DHT22;8404;48.752;12.922;2022-10-22T05:28:51;12.60;99.60
4249;DHT22;8404;48.752;12.922;2022-10-22T05:31:19;12.60;99.60
4249;DHT22;8404;48.752;12.922;2022-10-22T05:33:49;12.60;99.60
4249;DHT22;8404;48.752;12.922;2022-10-22T05:36:20;12.70;99.60
4249;DHT22;8404;48.752;12.922;2022-10-22T05:38:49;12.70;99.50
4249;DHT22;8404;48.752;12.922;2022-10-22T05:41:19;12.70;99.50
4249;DHT22;8404;48.752;12.922;2022-10-22T05:43:47;12.70;99.50
4249;DHT22;8404;48.752;12.922;2022-10-22T05:46:18;12.70;99.50
4249;DHT22;8404;48.752;12.922;2022-10-22T05:48:50;12.70;99.50
4249;DHT22;8404;48.752;12.922;2022-10-22T05:51:19;12.70;99.50
4249;DHT22;8404;48.752;12.922;2022-10-22T05:53:50;12.70;99.50
4249;DHT22;8404;48.752;12.922;2022-10-22T05:56:19;12.70;99.60
4249;DHT22;8404;48.752;12.922;2022-10-22T05:58:47;12.70;99.50
4249;DHT22;8404;48.752;12.922;2022-10-22T06:01:18;12.70;99.60
4249;DHT22;8404;48.752;12.922;2022-10-22T06:03:46;12.70;99.50
4249;DHT22;8404;48.752;12.922;2022-10-22T06:06:20;12.70;99.50
4249;DHT22;8404;48.752;12.922;2022-10-22T06:08:49;12.70;99.50
4249;DHT22;8404;48.752;12.922;2022-10-22T06:11:19;12.70;99.60
4249;DHT22;8404;48.752;12.922;2022-10-22T06:13:48;12.70;99.60
4249;DHT22;8404;48.752;12.922;2022-10-22T06:16:17;12.70;99.60
4249;DHT22;8404;48.752;12.922;2022-10-22T06:18:45;12.80;99.60
4249;DHT22;8404;48.752;12.922;2022-10-22T06:21:14;12.80;99.60
4249;DHT22;8404;48.752;12.922;2022-10-22T06:23:44;12.80;99.60
4249;DHT22;8404;48.752;12.922;2022-10-22T06:26:12;12.80;99.60
4249;DHT22;8404;48.752;12.922;2022-10-22T06:28:41;12.80;99.70
4249;DHT22;8404;48.752;12.922;2022-10-22T06:31:09;12.90;99.70
4249;DHT22;8404;48.752;12.922;2022-10-22T06:33:37;12.80;99.70
4249;DHT22;8404;48.752;12.922;2022-10-22T06:36:10;12.90;99.80
4249;DHT22;8404;48.752;12.922;2022-10-22T06:38:39;12.90;99.70
4249;DHT22;8404;48.752;12.922;2022-10-22T06:41:10;12.90;99.80
4249;DHT22;8404;48.752;12.922;2022-10-22T06:43:39;12.90;99.70
4249;DHT22;8404;48.752;12.922;2022-10-22T06:46:08;12.90;99.70
4249;DHT22;8404;48.752;12.922;2022-10-22T06:48:47;12.90;99.80
4249;DHT22;8404;48.752;12.922;2022-10-22T06:51:16;12.90;99.70
4249;DHT22;8404;48.752;12.922;2022-10-22T06:53:44;12.90;99.70
4249;DHT22;8404;48.752;12.922;2022-10-22T06:56:16;12.90;99.70
4249;DHT22;8404;48.752;12.922;2022-10-22T06:58:46;13.00;99.80
4249;DHT22;8404;48.752;12.922;2022-10-22T07:01:15;13.00;99.70
4249;DHT22;8404;48.752;12.922;2022-10-22T07:03:44;13.00;99.80
4249;DHT22;8404;48.752;12.922;2022-10-22T07:06:13;13.00;99.80
4249;DHT22;8404;48.752;12.922;2022-10-22T07:08:42;13.00;99.80
4249;DHT22;8404;48.752;12.922;2022-10-22T07:11:14;13.00;99.80
4249;DHT22;8404;48.752;12.922;2022-10-22T07:13:43;13.10;99.80
4249;DHT22;8404;48.752;12.922;2022-10-22T07:16:12;13.10;99.80
4249;DHT22;8404;48.752;12.922;2022-10-22T07:18:41;13.10;99.70
4249;DHT22;8404;48.752;12.922;2022-10-22T07:21:10;13.20;99.70
4249;DHT22;8404;48.752;12.922;2022-10-22T07:23:39;13.20;99.70
4249;DHT22;8404;48.752;12.922;2022-10-22T07:26:07;13.30;99.70
4249;DHT22;8404;48.752;12.922;2022-10-22T07:28:38;13.30;99.70
4249;DHT22;8404;48.752;12.922;2022-10-22T07:31:08;13.40;99.70
4249;DHT22;8404;48.752;12.922;2022-10-22T07:33:37;13.40;99.50
4249;DHT22;8404;48.752;12.922;2022-10-22T07:36:07;13.50;99.60
4249;DHT22;8404;48.752;12.922;2022-10-22T07:38:37;13.50;99.70
4249;DHT22;8404;48.752;12.922;2022-10-22T07:41:05;13.50;99.40
4249;DHT22;8404;48.752;12.922;2022-10-22T07:43:33;13.50;99.50
4249;DHT22;8404;48.752;12.922;2022-10-22T07:46:02;13.50;99.60
4249;DHT22;8404;48.752;12.922;2022-10-22T07:48:30;13.50;99.60
4249;DHT22;8404;48.752;12.922;2022-10-22T07:50:58;13.60;99.70
4249;DHT22;8404;48.752;12.922;2022-10-22T07:53:26;13.60;99.70
4249;DHT22;8404;48.752;12.922;2022-10-22T07:55:54;13.70;99.70
4249;DHT22;8404;48.752;12.922;2022-10-22T07:58:23;13.70;99.70
4249;DHT22;8404;48.752;12.922;2022-10-22T08:00:54;13.70;99.60
4249;DHT22;8404;48.752;12.922;2022-10-22T08:03:23;13.80;99.60
4249;DHT22;8404;48.752;12.922;2022-10-22T08:05:52;13.80;99.60
4249;DHT22;8404;48.752;12.922;2022-10-22T08:08:21;13.80;99.60
4249;DHT22;8404;48.752;12.922;2022-10-22T08:10:56;13.80;99.60
4249;DHT22;8404;48.752;12.922;2022-10-22T08:13:25;13.80;99.70
4249;DHT22;8404;48.752;12.922;2022-10-22T08:15:55;13.90;99.70
4249;DHT22;8404;48.752;12.922;2022-10-22T08:18:25;14.00;99.70
4249;DHT22;8404;48.752;12.922;2022-10-22T08:20:53;14.00;99.70
4249;DHT22;8404;48.752;12.922;2022-10-22T08:23:21;14.10;99.70
4249;DHT22;8404;48.752;12.922;2022-10-22T08:25:55;14.20;99.60
4249;DHT22;8404;48.752;12.922;2022-10-22T08:28:23;14.30;99.60
4249;DHT22;8404;48.752;12.922;2022-10-22T08:30:51;14.30;99.50
4249;DHT22;8404;48.752;12.922;2022-10-22T08:33:19;14.40;99.40
4249;DHT22;8404;48.752;12.922;2022-10-22T08:35:49;14.50;99.50
4249;DHT22;8404;48.752;12.922;2022-10-22T08:38:19;14.50;99.50
4249;DHT22;8404;48.752;12.922;2022-10-22T08:40:50;14.60;99.40
4249;DHT22;8404;48.752;12.922;2022-10-22T08:43:33;14.70;99.40
4249;DHT22;8404;48.752;12.922;2022-10-22T08:46:18;14.80;99.30
4249;DHT22;8404;48.752;12.922;2022-10-22T08:48:52;14.90;99.20
4249;DHT22;8404;48.752;12.922;2022-10-22T08:51:25;14.90;99.20
4249;DHT22;8404;48.752;12.922;2022-10-22T08:54:07;15.00;99.10
4249;DHT22;8404;48.752;12.922;2022-10-22T08:56:44;15.00;99.00
4249;DHT22;8404;48.752;12.922;2022-10-22T08:59:18;15.00;99.10
4249;DHT22;8404;48.752;12.922;2022-10-22T09:01:49;14.90;99.30
4249;DHT22;8404;48.752;12.922;2022-10-22T09:04:22;15.00;99.40
4249;DHT22;8404;48.752;12.922;2022-10-22T09:06:54;15.00;99.30
4249;DHT22;8404;48.752;12.922;2022-10-22T09:09:28;15.10;99.40
4249;DHT22;8404;48.752;12.922;2022-10-22T09:11:59;15.10;99.20
4249;DHT22;8404;48.752;12.922;2022-10-22T09:14:28;15.20;99.10
4249;DHT22;8404;48.752;12.922;2022-10-22T09:17:15;15.20;99.10
4249;DHT22;8404;48.752;12.922;2022-10-22T09:19:55;15.30;99.10
4249;DHT22;8404;48.752;12.922;2022-10-22T09:22:35;15.40;98.90
4249;DHT22;8404;48.752;12.922;2022-10-22T09:25:16;15.40;98.40
4249;DHT22;8404;48.752;12.922;2022-10-22T09:27:46;15.40;98.70
4249;DHT22;8404;48.752;12.922;2022-10-22T09:30:16;15.40;98.80
4249;DHT22;8404;48.752;12.922;2022-10-22T09:32:46;15.40;98.80
4249;DHT22;8404;48.752;12.922;2022-10-22T09:35:22;15.50;98.90
4249;DHT22;8404;48.752;12.922;2022-10-22T09:37:53;15.50;98.90
4249;DHT22;8404;48.752;12.922;2022-10-22T09:40:22;15.60;98.90
4249;DHT22;8404;48.752;12.922;2022-10-22T09:42:50;15.70;98.90
4249;DHT22;8404;48.752;12.922;2022-10-22T09:45:20;15.80;98.90
4249;DHT22;8404;48.752;12.922;2022-10-22T09:47:48;15.90;98.80
4249;DHT22;8404;48.752;12.922;2022-10-22T09:50:28;15.90;98.80
4249;DHT22;8404;48.752;12.922;2022-10-22T09:53:12;15.90;98.70
4249;DHT22;8404;48.752;12.922;2022-10-22T09:55:41;16.00;98.70
4249;DHT22;8404;48.752;12.922;2022-10-22T09:58:11;16.00;98.60
4249;DHT22;8404;48.752;12.922;2022-10-22T10:00:43;16.10;98.40
4249;DHT22;8404;48.752;12.922;2022-10-22T10:03:16;16.10;98.40
4249;DHT22;8404;48.752;12.922;2022-10-22T10:05:47;16.20;98.40
4249;DHT22;8404;48.752;12.922;2022-10-22T10:08:17;16.30;98.30
4249;DHT22;8404;48.752;12.922;2022-10-22T10:10:47;16.40;98.20
4249;DHT22;8404;48.752;12.922;2022-10-22T10:13:41;16.50;98.10
4249;DHT22;8404;48.752;12.922;2022-10-22T10:16:21;16.50;98.00
4249;DHT22;8404;48.752;12.922;2022-10-22T10:19:05;16.60;98.10
4249;DHT22;8404;48.752;12.922;2022-10-22T10:21:43;16.70;97.80
4249;DHT22;8404;48.752;12.922;2022-10-22T10:24:22;16.60;97.60
4249;DHT22;8404;48.752;12.922;2022-10-22T10:26:57;16.70;97.50
4249;DHT22;8404;48.752;12.922;2022-10-22T10:29:38;16.70;97.50
4249;DHT22;8404;48.752;12.922;2022-10-22T10:32:29;16.70;97.40
4249;DHT22;8404;48.752;12.922;2022-10-22T10:35:08;16.80;97.10
4249;DHT22;8404;48.752;12.922;2022-10-22T10:37:45;16.80;96.90
4249;DHT22;8404;48.752;12.922;2022-10-22T10:40:23;16.80;96.50
4249;DHT22;8404;48.752;12.922;2022-10-22T10:42:57;16.70;96.50
4249;DHT22;8404;48.752;12.922;2022-10-22T10:45:30;16.70;96.50
4249;DHT22;8404;48.752;12.922;2022-10-22T10:51:03;16.70;96.10
4249;DHT22;8404;48.752;12.922;2022-10-22T10:53:50;16.70;96.10
4249;DHT22;8404;48.752;12.922;2022-10-22T10:56:32;16.60;96.00
4249;DHT22;8404;48.752;12.922;2022-10-22T10:59:15;16.60;96.30
4249;DHT22;8404;48.752;12.922;2022-10-22T11:01:58;16.60;96.30
4249;DHT22;8404;48.752;12.922;2022-10-22T11:04:56;16.60;96.20
4249;DHT22;8404;48.752;12.922;2022-10-22T11:07:35;16.70;96.10
4249;DHT22;8404;48.752;12.922;2022-10-22T11:10:11;16.70;96.10
4249;DHT22;8404;48.752;12.922;2022-10-22T11:12:45;16.70;96.30
4249;DHT22;8404;48.752;12.922;2022-10-22T11:15:23;16.70;96.20
4249;DHT22;8404;48.752;12.922;2022-10-22T11:17:54;16.70;95.90
4249;DHT22;8404;48.752;12.922;2022-10-22T11:20:27;16.60;94.10
4249;DHT22;8404;48.752;12.922;2022-10-22T11:23:00;16.60;94.70
4249;DHT22;8404;48.752;12.922;2022-10-22T11:25:48;16.60;94.00
4249;DHT22;8404;48.752;12.922;2022-10-22T11:28:22;16.50;94.10
4249;DHT22;8404;48.752;12.922;2022-10-22T11:30:56;16.50;94.50
4249;DHT22;8404;48.752;12.922;2022-10-22T11:33:28;16.50;94.30
4249;DHT22;8404;48.752;12.922;2022-10-22T11:36:01;16.60;94.00
4249;DHT22;8404;48.752;12.922;2022-10-22T11:38:31;16.60;94.30
4249;DHT22;8404;48.752;12.922;2022-10-22T11:41:05;16.60;94.30
4249;DHT22;8404;48.752;12.922;2022-10-22T11:43:52;16.60;94.70
4249;DHT22;8404;48.752;12.922;2022-10-22T11:46:33;16.80;94.40
4249;DHT22;8404;48.752;12.922;2022-10-22T11:49:13;16.90;93.40
4249;DHT22;8404;48.752;12.922;2022-10-22T11:51:44;17.00;93.50
4249;DHT22;8404;48.752;12.922;2022-10-22T11:54:28;17.00;93.20
4249;DHT22;8404;48.752;12.922;2022-10-22T11:57:21;16.90;93.10
4249;DHT22;8404;48.752;12.922;2022-10-22T11:59:56;16.90;92.80
4249;DHT22;8404;48.752;12.922;2022-10-22T12:02:41;16.80;92.10
4249;DHT22;8404;48.752;12.922;2022-10-22T12:08:24;16.70;92.70
4249;DHT22;8404;48.752;12.922;2022-10-22T12:11:11;16.60;92.60
4249;DHT22;8404;48.752;12.922;2022-10-22T12:14:16;16.60;92.70
4249;DHT22;8404;48.752;12.922;2022-10-22T12:16:51;16.60;92.20
4249;DHT22;8404;48.752;12.922;2022-10-22T12:19:26;16.50;92.30
4249;DHT22;8404;48.752;12.922;2022-10-22T12:21:57;16.40;92.10
4249;DHT22;8404;48.752;12.922;2022-10-22T12:24:30;16.30;92.40
4249;DHT22;8404;48.752;12.922;2022-10-22T12:26:59;16.20;92.80
4249;DHT22;8404;48.752;12.922;2022-10-22T12:29:31;16.20;92.80
4249;DHT22;8404;48.752;12.922;2022-10-22T12:32:03;16.30;92.80
4249;DHT22;8404;48.752;12.922;2022-10-22T12:34:31;16.30;92.10
4249;DHT22;8404;48.752;12.922;2022-10-22T12:37:03;16.30;92.30
4249;DHT22;8404;48.752;12.922;2022-10-22T12:39:32;16.30;92.90
4249;DHT22;8404;48.752;12.922;2022-10-22T12:42:04;16.30;92.90
4249;DHT22;8404;48.752;12.922;2022-10-22T12:44:32;16.30;92.60
4249;DHT22;8404;48.752;12.922;2022-10-22T12:47:02;16.40;92.10
4249;DHT22;8404;48.752;12.922;2022-10-22T12:49:34;16.30;92.30
4249;DHT22;8404;48.752;12.922;2022-10-22T12:52:05;16.30;92.70
4249;DHT22;8404;48.752;12.922;2022-10-22T12:54:39;16.40;92.40
4249;DHT22;8404;48.752;12.922;2022-10-22T12:57:10;16.50;92.80
4249;DHT22;8404;48.752;12.922;2022-10-22T12:59:41;16.60;92.50
4249;DHT22;8404;48.752;12.922;2022-10-22T13:02:20;16.80;92.20
4249;DHT22;8404;48.752;12.922;2022-10-22T13:05:15;17.00;92.00
4249;DHT22;8404;48.752;12.922;2022-10-22T13:07:46;17.10;91.70
4249;DHT22;8404;48.752;12.922;2022-10-22T13:10:18;17.10;90.90
4249;DHT22;8404;48.752;12.922;2022-10-22T13:12:53;17.10;91.30
4249;DHT22;8404;48.752;12.922;2022-10-22T13:15:33;17.10;90.80
4249;DHT22;8404;48.752;12.922;2022-10-22T13:18:12;17.20;91.30
4249;DHT22;8404;48.752;12.922;2022-10-22T13:20:53;17.30;90.10
4249;DHT22;8404;48.752;12.922;2022-10-22T13:23:23;17.30;90.40
4249;DHT22;8404;48.752;12.922;2022-10-22T13:26:01;17.40;90.30
4249;DHT22;8404;48.752;12.922;2022-10-22T13:28:31;17.60;90.10
4249;DHT22;8404;48.752;12.922;2022-10-22T13:31:00;17.70;89.90
4249;DHT22;8404;48.752;12.922;2022-10-22T13:33:33;17.80;88.80
4249;DHT22;8404;48.752;12.922;2022-10-22T13:36:02;17.80;88.50
4249;DHT22;8404;48.752;12.922;2022-10-22T13:38:30;18.00;88.40
4249;DHT22;8404;48.752;12.922;2022-10-22T13:40:58;18.30;87.40
4249;DHT22;8404;48.752;12.922;2022-10-22T13:43:30;18.40;85.70
4249;DHT22;8404;48.752;12.922;2022-10-22T13:45:59;18.50;87.10
4249;DHT22;8404;48.752;12.922;2022-10-22T13:48:28;18.50;86.90
4249;DHT22;8404;48.752;12.922;2022-10-22T13:50:58;18.50;86.50
4249;DHT22;8404;48.752;12.922;2022-10-22T13:53:27;18.60;87.50
4249;DHT22;8404;48.752;12.922;2022-10-22T13:55:57;18.80;87.50
4249;DHT22;8404;48.752;12.922;2022-10-22T13:58:25;19.10;85.50
4249;DHT22;8404;48.752;12.922;2022-10-22T14:00:54;19.20;85.20
4249;DHT22;8404;48.752;12.922;2022-10-22T14:03:26;19.40;82.60
4249;DHT22;8404;48.752;12.922;2022-10-22T14:05:55;19.50;82.00
4249;DHT22;8404;48.752;12.922;2022-10-22T14:08:26;19.40;81.10
4249;DHT22;8404;48.752;12.922;2022-10-22T14:10:55;19.60;81.10
4249;DHT22;8404;48.752;12.922;2022-10-22T14:13:23;19.70;81.50
4249;DHT22;8404;48.752;12.922;2022-10-22T14:15:52;20.00;79.60
4249;DHT22;8404;48.752;12.922;2022-10-22T14:18:23;20.10;76.90
4249;DHT22;8404;48.752;12.922;2022-10-22T14:20:54;19.90;77.10
4249;DHT22;8404;48.752;12.922;2022-10-22T14:23:26;19.70;77.90
4249;DHT22;8404;48.752;12.922;2022-10-22T14:25:55;19.60;78.80
4249;DHT22;8404;48.752;12.922;2022-10-22T14:28:24;19.40;79.30
4249;DHT22;8404;48.752;12.922;2022-10-22T14:30:53;19.40;79.90
4249;DHT22;8404;48.752;12.922;2022-10-22T14:33:23;19.40;80.10
4249;DHT22;8404;48.752;12.922;2022-10-22T14:35:57;19.50;78.60
4249;DHT22;8404;48.752;12.922;2022-10-22T14:38:28;19.70;80.00
4249;DHT22;8404;48.752;12.922;2022-10-22T14:40:58;20.00;79.80
4249;DHT22;8404;48.752;12.922;2022-10-22T14:43:27;20.30;78.60
4249;DHT22;8404;48.752;12.922;2022-10-22T14:45:57;20.40;77.00
4249;DHT22;8404;48.752;12.922;2022-10-22T14:48:25;20.30;75.40
4249;DHT22;8404;48.752;12.922;2022-10-22T14:50:53;20.30;76.50
4249;DHT22;8404;48.752;12.922;2022-10-22T14:53:22;20.50;76.40
4249;DHT22;8404;48.752;12.922;2022-10-22T14:55:51;20.70;75.20
4249;DHT22;8404;48.752;12.922;2022-10-22T14:58:21;20.70;74.50
4249;DHT22;8404;48.752;12.922;2022-10-22T15:00:49;20.60;73.80
4249;DHT22;8404;48.752;12.922;2022-10-22T15:03:17;20.50;73.40
4249;DHT22;8404;48.752;12.922;2022-10-22T15:05:45;20.30;75.20
4249;DHT22;8404;48.752;12.922;2022-10-22T15:08:14;20.30;75.70
4249;DHT22;8404;48.752;12.922;2022-10-22T15:10:42;20.30;75.20
4249;DHT22;8404;48.752;12.922;2022-10-22T15:13:11;20.10;75.60
4249;DHT22;8404;48.752;12.922;2022-10-22T15:15:40;19.90;76.00
4249;DHT22;8404;48.752;12.922;2022-10-22T15:18:08;19.70;76.50
4249;DHT22;8404;48.752;12.922;2022-10-22T15:20:36;19.50;76.60
4249;DHT22;8404;48.752;12.922;2022-10-22T15:23:04;19.40;77.70
4249;DHT22;8404;48.752;12.922;2022-10-22T15:25:32;19.20;78.60
4249;DHT22;8404;48.752;12.922;2022-10-22T15:28:00;19.00;79.40
4249;DHT22;8404;48.752;12.922;2022-10-22T15:30:37;19.00;80.30
4249;DHT22;8404;48.752;12.922;2022-10-22T15:33:05;19.00;80.50
4249;DHT22;8404;48.752;12.922;2022-10-22T15:35:33;19.00;80.70
4249;DHT22;8404;48.752;12.922;2022-10-22T15:38:03;18.80;80.30
4249;DHT22;8404;48.752;12.922;2022-10-22T15:40:32;18.80;80.80
4249;DHT22;8404;48.752;12.922;2022-10-22T15:43:00;18.70;80.90
4249;DHT22;8404;48.752;12.922;2022-10-22T15:45:28;18.70;81.10
4249;DHT22;8404;48.752;12.922;2022-10-22T15:47:57;18.60;81.40
4249;DHT22;8404;48.752;12.922;2022-10-22T15:50:26;18.60;82.00
4249;DHT22;8404;48.752;12.922;2022-10-22T15:52:54;18.40;82.30
4249;DHT22;8404;48.752;12.922;2022-10-22T15:55:22;18.30;82.70
4249;DHT22;8404;48.752;12.922;2022-10-22T15:57:53;18.20;83.40
4249;DHT22;8404;48.752;12.922;2022-10-22T16:00:26;18.00;83.80
4249;DHT22;8404;48.752;12.922;2022-10-22T16:02:54;17.90;84.30
4249;DHT22;8404;48.752;12.922;2022-10-22T16:05:27;17.70;84.60
4249;DHT22;8404;48.752;12.922;2022-10-22T16:07:55;17.60;85.10
4249;DHT22;8404;48.752;12.922;2022-10-22T16:10:23;17.50;85.80
4249;DHT22;8404;48.752;12.922;2022-10-22T16:12:51;17.30;86.00
4249;DHT22;8404;48.752;12.922;2022-10-22T16:15:20;17.20;86.30
4249;DHT22;8404;48.752;12.922;2022-10-22T16:17:50;17.10;86.70
4249;DHT22;8404;48.752;12.922;2022-10-22T16:20:18;17.00;87.10
4249;DHT22;8404;48.752;12.922;2022-10-22T16:22:49;16.80;87.60